地図

経路データ

SID SEASON NUMBER BASIN SUBBASIN NAME ISO_TIME NATURE LAT LON WMO_WIND WMO_PRES WMO_AGENCY TRACK_TYPE DIST2LAND LANDFALL IFLAG USA_AGENCY USA_ATCF_ID USA_LAT USA_LON USA_RECORD USA_STATUS USA_WIND USA_PRES USA_SSHS USA_R34_NE USA_R34_SE USA_R34_SW USA_R34_NW USA_R50_NE USA_R50_SE USA_R50_SW USA_R50_NW USA_R64_NE USA_R64_SE USA_R64_SW USA_R64_NW USA_POCI USA_ROCI USA_RMW USA_EYE TOKYO_LAT TOKYO_LON TOKYO_GRADE TOKYO_WIND TOKYO_PRES TOKYO_R50_DIR TOKYO_R50_LONG TOKYO_R50_SHORT TOKYO_R30_DIR TOKYO_R30_LONG TOKYO_R30_SHORT TOKYO_LAND CMA_LAT CMA_LON CMA_CAT CMA_WIND CMA_PRES HKO_LAT HKO_LON HKO_CAT HKO_WIND HKO_PRES NEWDELHI_LAT NEWDELHI_LON NEWDELHI_GRADE NEWDELHI_WIND NEWDELHI_PRES NEWDELHI_CI NEWDELHI_DP NEWDELHI_POCI REUNION_LAT REUNION_LON REUNION_TYPE REUNION_WIND REUNION_PRES REUNION_TNUM REUNION_CI REUNION_RMW REUNION_R34_NE REUNION_R34_SE REUNION_R34_SW REUNION_R34_NW REUNION_R50_NE REUNION_R50_SE REUNION_R50_SW REUNION_R50_NW REUNION_R64_NE REUNION_R64_SE REUNION_R64_SW REUNION_R64_NW BOM_LAT BOM_LON BOM_TYPE BOM_WIND BOM_PRES BOM_TNUM BOM_CI BOM_RMW BOM_R34_NE BOM_R34_SE BOM_R34_SW BOM_R34_NW BOM_R50_NE BOM_R50_SE BOM_R50_SW BOM_R50_NW BOM_R64_NE BOM_R64_SE BOM_R64_SW BOM_R64_NW BOM_ROCI BOM_POCI BOM_EYE BOM_POS_METHOD BOM_PRES_METHOD NADI_LAT NADI_LON NADI_CAT NADI_WIND NADI_PRES WELLINGTON_LAT WELLINGTON_LON WELLINGTON_WIND WELLINGTON_PRES DS824_LAT DS824_LON DS824_STAGE DS824_WIND DS824_PRES TD9636_LAT TD9636_LON TD9636_STAGE TD9636_WIND TD9636_PRES TD9635_LAT TD9635_LON TD9635_WIND TD9635_PRES TD9635_ROCI NEUMANN_LAT NEUMANN_LON NEUMANN_CLASS NEUMANN_WIND NEUMANN_PRES MLC_LAT MLC_LON MLC_CLASS MLC_WIND MLC_PRES USA_GUST BOM_GUST BOM_GUST_PER REUNION_GUST REUNION_GUST_PER USA_SEAHGT USA_SEARAD_NE USA_SEARAD_SE USA_SEARAD_SW USA_SEARAD_NW STORM_SPEED STORM_DIR
1932151N12131 1932 29 WP MM NOT_NAMED 1932-05-30 10:00:00 NR 11.8000 131.300 main 606 586 __________O___ -1 11.8000 131.300 4 7 292
1932151N12131 1932 29 WP MM NOT_NAMED 1932-05-30 12:00:00 NR 11.8932 131.072 main 586 545 __________P___ -1 11.8932 131.072 4 7 292
1932151N12131 1932 29 WP MM NOT_NAMED 1932-05-30 15:00:00 NR 12.0291 130.721 main 545 508 __________P___ -1 12.0291 130.721 4 8 290
1932151N12131 1932 29 WP MM NOT_NAMED 1932-05-30 18:00:00 NR 12.1556 130.350 main 508 469 __________P___ -1 12.1556 130.350 4 8 287
1932151N12131 1932 29 WP MM NOT_NAMED 1932-05-30 21:00:00 NR 12.2671 129.945 main 469 459 __________P___ -1 12.2671 129.945 4 8 285
1932151N12131 1932 29 WP MM NOT_NAMED 1932-05-30 22:00:00 NR 12.3000 129.800 main 459 428 __________O___ -1 12.3000 129.800 4 9 282
1932151N12131 1932 29 WP MM NOT_NAMED 1932-05-31 00:00:00 NR 12.3593 129.495 main 432 381 __________P___ -1 12.3593 129.495 4 9 280
1932151N12131 1932 29 WP MM NOT_NAMED 1932-05-31 03:00:00 NR 12.4416 129.006 main 381 327 __________P___ -1 12.4416 129.006 4 10 280
1932151N12131 1932 29 WP MM NOT_NAMED 1932-05-31 06:00:00 NR 12.5326 128.493 main 327 275 __________P___ -1 12.5326 128.493 4 10 282
1932151N12131 1932 29 WP MM NOT_NAMED 1932-05-31 09:00:00 NR 12.6511 127.973 main 277 256 __________P___ -1 12.6511 127.973 4 10 284
1932151N12131 1932 29 WP MM NOT_NAMED 1932-05-31 10:00:00 NR 12.7000 127.800 main 256 227 __________O___ -1 12.7000 127.800 4 10 288
1932151N12131 1932 29 WP MM NOT_NAMED 1932-05-31 12:00:00 NR 12.8133 127.472 main 227 185 __________P___ -1 12.8133 127.472 4 10 291
1932151N12131 1932 29 WP MM NOT_NAMED 1932-05-31 15:00:00 NR 13.0148 126.980 main 185 155 __________P___ -1 13.0148 126.980 4 11 294
1932151N12131 1932 29 WP MM NOT_NAMED 1932-05-31 18:00:00 NR 13.2486 126.482 main 155 140 __________P___ -1 13.2486 126.482 4 11 297
1932151N12131 1932 29 WP MM NOT_NAMED 1932-05-31 21:00:00 NR 13.5086 125.973 main 141 135 __________P___ -1 13.5086 125.973 4 11 298
1932151N12131 1932 29 WP MM NOT_NAMED 1932-05-31 22:00:00 NR 13.6000 125.800 main 139 108 __________O___ -1 13.6000 125.800 4 12 298
1932151N12131 1932 29 WP MM NOT_NAMED 1932-06-01 00:00:00 NR 13.7802 125.437 main 108 55 __________P___ -1 13.7802 125.437 4 12 298
1932151N12131 1932 29 WP MM NOT_NAMED 1932-06-01 03:00:00 NR 14.0695 124.879 main 58 35 __________P___ -1 14.0695 124.879 4 12 299
1932151N12131 1932 29 WP MM NOT_NAMED 1932-06-01 06:00:00 NR 14.3758 124.320 main 44 44 __________P___ -1 14.3758 124.320 4 12 300
1932151N12131 1932 29 WP MM NOT_NAMED 1932-06-01 09:00:00 NR 14.6929 123.776 main 84 89 __________P___ -1 14.6929 123.776 4 12 301
1932151N12131 1932 29 WP MM NOT_NAMED 1932-06-01 10:00:00 NR 14.8000 123.600 main 95 92 __________O___ -1 14.8000 123.600 4 12 304
1932151N12131 1932 29 WP MM NOT_NAMED 1932-06-01 12:00:00 NR 15.0182 123.279 main 99 99 __________P___ -1 15.0182 123.279 4 11 306
1932151N12131 1932 29 WP MM NOT_NAMED 1932-06-01 15:00:00 NR 15.3524 122.817 main 108 54 __________P___ -1 15.3524 122.817 4 11 307
1932151N12131 1932 29 WP MM NOT_NAMED 1932-06-01 18:00:00 NR 15.6838 122.356 main 54 10 __________P___ -1 15.6838 122.356 4 11 305
1932151N12131 1932 29 WP MM NOT_NAMED 1932-06-01 21:00:00 NR 16.0001 121.871 main 10 0 __________P___ -1 16.0001 121.871 4 11 303
1932151N12131 1932 29 WP MM NOT_NAMED 1932-06-01 22:00:00 NR 16.1000 121.700 main 0 0 __________O___ -1 16.1000 121.700 4 12 299
1932151N12131 1932 29 WP MM NOT_NAMED 1932-06-02 00:00:00 NR 16.2755 121.346 main 0 0 __________P___ -1 16.2755 121.346 4 12 296
1932151N12131 1932 29 WP MM NOT_NAMED 1932-06-02 03:00:00 NR 16.5197 120.784 main 0 0 __________P___ -1 16.5197 120.784 4 12 293
1932151N12131 1932 29 WP MM NOT_NAMED 1932-06-02 06:00:00 NR 16.7582 120.181 main 21 30 __________P___ -1 16.7582 120.181 4 13 292
1932151N12131 1932 29 WP MM NOT_NAMED 1932-06-02 09:00:00 NR 17.0099 119.529 main 84 84 __________P___ -1 17.0099 119.529 4 14 292
1932151N12131 1932 29 WP MM NOT_NAMED 1932-06-02 10:00:00 NR 17.1000 119.300 main 104 104 __________O___ -1 17.1000 119.300 4 15 295
1932151N12131 1932 29 WP MM NOT_NAMED 1932-06-02 12:00:00 NR 17.3316 118.801 main 154 160 __________P___ -1 17.3316 118.801 4 16 296
1932151N12131 1932 29 WP MM NOT_NAMED 1932-06-02 15:00:00 NR 17.6984 118.007 main 244 244 __________P___ -1 17.6984 118.007 4 17 295
1932151N12131 1932 29 WP MM NOT_NAMED 1932-06-02 18:00:00 NR 18.0464 117.203 main 331 332 __________P___ -1 18.0464 117.203 4 16 293
1932151N12131 1932 29 WP MM NOT_NAMED 1932-06-02 21:00:00 NR 18.3285 116.437 main 419 419 __________P___ -1 18.3285 116.437 4 15 290
1932151N12131 1932 29 WP MM NOT_NAMED 1932-06-02 22:00:00 NR 18.4000 116.200 main 442 442 __________O___ -1 18.4000 116.200 4 13 284
1932151N12131 1932 29 WP MM NOT_NAMED 1932-06-03 00:00:00 NR 18.4814 115.781 main 452 435 __________P___ -1 18.4814 115.781 4 11 278
1932151N12131 1932 29 WP MM NOT_NAMED 1932-06-03 03:00:00 NR 18.5286 115.209 main 435 407 __________P___ -1 18.5286 115.209 4 10 272
1932151N12131 1932 29 WP MM NOT_NAMED 1932-06-03 06:00:00 NR 18.5223 114.683 main 407 358 __________P___ -1 18.5223 114.683 4 10 268
1932151N12131 1932 29 WP MM NOT_NAMED 1932-06-03 09:00:00 NR 18.5026 114.172 main 358 338 __________P___ -1 18.5026 114.172 4 10 268
1932151N12131 1932 29 WP MM NOT_NAMED 1932-06-03 10:00:00 NR 18.5000 114.000 main 338 299 __________O___ -1 18.5000 114.000 4 11 272
1932151N12131 1932 29 WP MM NOT_NAMED 1932-06-03 12:00:00 NR 18.5224 113.615 main 299 238 __________P___ -1 18.5224 113.615 4 11 274
1932151N12131 1932 29 WP MM NOT_NAMED 1932-06-03 15:00:00 NR 18.5623 113.037 main 238 193 __________P___ -1 18.5623 113.037 4 11 275
1932151N12131 1932 29 WP MM NOT_NAMED 1932-06-03 18:00:00 NR 18.6123 112.478 main 193 145 __________P___ -1 18.6123 112.478 4 10 276
1932151N12131 1932 29 WP MM NOT_NAMED 1932-06-03 21:00:00 NR 18.6755 111.960 main 145 130 __________P___ -1 18.6755 111.960 4 10 278
1932151N12131 1932 29 WP MM NOT_NAMED 1932-06-03 22:00:00 NR 18.7000 111.800 main 130 97 __________O___ -1 18.7000 111.800 4 9 281
1932151N12131 1932 29 WP MM NOT_NAMED 1932-06-04 00:00:00 NR 18.7545 111.518 main 97 57 __________P___ -1 18.7545 111.518 4 8 283
1932151N12131 1932 29 WP MM NOT_NAMED 1932-06-04 03:00:00 NR 18.8494 111.139 main 57 21 __________P___ -1 18.8494 111.139 4 7 286
1932151N12131 1932 29 WP MM NOT_NAMED 1932-06-04 06:00:00 NR 18.9547 110.786 main 21 0 __________P___ -1 18.9547 110.786 4 7 288
1932151N12131 1932 29 WP MM NOT_NAMED 1932-06-04 09:00:00 NR 19.0639 110.426 main 0 0 __________P___ -1 19.0639 110.426 4 7 288
1932151N12131 1932 29 WP MM NOT_NAMED 1932-06-04 10:00:00 NR 19.1000 110.300 main 0 0 __________O___ -1 19.1000 110.300 4 8 286
1932151N12131 1932 29 WP MM NOT_NAMED 1932-06-04 12:00:00 NR 19.1707 110.032 main 0 0 __________P___ -1 19.1707 110.032 4 8 285
1932151N12131 1932 29 WP MM NOT_NAMED 1932-06-04 15:00:00 NR 19.2732 109.599 main 0 0 __________P___ -1 19.2732 109.599 4 9 283
1932151N12131 1932 29 WP MM NOT_NAMED 1932-06-04 18:00:00 NR 19.3721 109.138 main 0 0 __________P___ -1 19.3721 109.138 4 9 282
1932151N12131 1932 29 WP MM NOT_NAMED 1932-06-04 21:00:00 NR 19.4684 108.661 main 11 15 __________P___ -1 19.4684 108.661 4 9 282
1932151N12131 1932 29 WP MM NOT_NAMED 1932-06-04 22:00:00 NR 19.5000 108.500 main 23 __________O___ -1 19.5000 108.500 4 9 282

デジタル台風データ・検索

IBTrACS Databaseについて

本データベースは、米国NOAAが公開する1842年以降の世界の熱帯低気圧のベストトラックデータアーカイブInternational Best Track Archive for Climate Stewardship (IBTrACS)を、ウェブで閲覧しやすい形式に変換したものです。

最終更新日:2021-10-08